Time;durP1;ratioP1;P1;durP2;ratioP2;P2;SDS_P1;SDS_P2;PMS_P1;PMS_P2;Temp;Humidity;BMP_temperature;BMP_pressure;BME280_temperature;BME280_humidity;BME280_pressure;Samples;Min_cycle;Max_cycle;Signal;HPM_P1;HPM_P2
2021/05/11 00:01:37;;;;;;;;;;;15.60;66.90;;;;;;5046900;28;20056;-67
2021/05/11 00:04:03;;;;;;;6.95;1.27;;;15.50;67.20;;;;;;5045955;28;19939;-68
2021/05/11 00:06:29;;;;;;;;;;;15.50;67.50;;;;;;5044635;28;20116;-67
2021/05/11 00:08:54;;;;;;;3.35;1.00;;;15.40;67.80;;;;;;5046186;28;19996;-67
2021/05/11 00:11:20;;;;;;;;;;;15.50;67.70;;;;;;5046560;28;20036;-67
2021/05/11 00:13:45;;;;;;;11.85;2.90;;;15.50;68.00;;;;;;5046258;28;20414;-67
2021/05/11 00:16:11;;;;;;;6.30;1.15;;;15.40;67.70;;;;;;5046098;28;20056;-67
2021/05/11 00:18:37;;;;;;;;;;;15.50;67.70;;;;;;5046295;28;20063;-67
2021/05/11 00:21:03;;;;;;;6.15;1.30;;;15.50;67.50;;;;;;5045467;28;20399;-67
2021/05/11 00:23:28;;;;;;;5.65;1.30;;;15.50;67.70;;;;;;5045949;28;20646;-67
2021/05/11 00:25:54;;;;;;;;;;;15.50;67.80;;;;;;5046772;28;20035;-67
2021/05/11 00:28:20;;;;;;;6.97;1.40;;;15.50;67.70;;;;;;5045846;28;19909;-67
2021/05/11 00:30:45;;;;;;;;;;;15.50;67.70;;;;;;5045076;28;20017;-67
2021/05/11 00:33:11;;;;;;;3.30;1.50;;;15.60;67.80;;;;;;5045818;28;19908;-67
2021/05/11 00:35:37;;;;;;;;;;;15.60;67.30;;;;;;5045936;28;20037;-67
2021/05/11 00:38:02;;;;;;;4.38;1.00;;;15.60;67.10;;;;;;5046146;28;19908;-67
2021/05/11 00:40:28;;;;;;;6.45;1.63;;;15.70;67.30;;;;;;5045410;28;20714;-67
2021/05/11 00:42:53;;;;;;;;;;;15.70;67.00;;;;;;5045942;28;20048;-67
2021/05/11 00:45:19;;;;;;;8.13;1.35;;;15.60;67.20;;;;;;5045915;28;19905;-68
2021/05/11 00:47:44;;;;;;;;;;;15.50;67.70;;;;;;5046041;28;20084;-67
2021/05/11 00:50:11;;;;;;;4.63;1.30;;;15.40;67.80;;;;;;5045437;28;19904;-68
2021/05/11 00:52:37;;;;;;;3.03;1.20;;;15.40;68.30;;;;;;5045283;28;20112;-67
2021/05/11 00:55:03;;;;;;;;;;;15.40;68.70;;;;;;5046275;28;20509;-67
2021/05/11 00:57:31;;;;;;;3.60;1.37;;;15.30;68.70;;;;;;5046101;28;20636;-67
2021/05/11 00:59:58;;;;;;;7.57;1.50;;;15.30;68.70;;;;;;5045431;28;20028;-67
2021/05/11 01:02:24;;;;;;;6.05;1.65;;;15.20;69.00;;;;;;5045485;28;20432;-67
2021/05/11 01:04:50;;;;;;;3.03;1.13;;;15.20;69.20;;;;;;5044998;28;20390;-67
2021/05/11 01:07:15;;;;;;;;;;;15.10;69.50;;;;;;5046310;28;20483;-67
2021/05/11 01:09:41;;;;;;;4.53;1.42;;;15.00;69.80;;;;;;5045694;28;19970;-67
2021/05/11 01:12:07;;;;;;;;;;;15.00;70.10;;;;;;5045836;28;20557;-68
2021/05/11 01:14:33;;;;;;;8.48;1.75;;;14.90;70.50;;;;;;5045479;28;20004;-66
2021/05/11 01:17:00;;;;;;;9.40;1.50;;;14.90;70.50;;;;;;5045360;28;20021;-67
2021/05/11 01:19:45;;;;;;;3.92;1.95;;;14.90;70.10;;;;;;5045387;28;20032;-66
2021/05/11 01:24:43;;;;;;;3.35;1.52;;;14.90;70.70;;;;;;5044687;28;20087;-68
2021/05/11 01:27:50;;;;;;;7.32;1.55;;;14.90;70.20;;;;;;5048132;28;20028;-68
2021/05/11 01:54:25;;;;;;;;;;;15.00;69.20;;;;;;5049295;28;20021;-67
2021/05/11 02:23:45;;;;;;;4.30;1.40;;;14.20;72.80;;;;;;5047863;28;20043;-67
2021/05/11 02:26:10;;;;;;;;;;;14.10;73.00;;;;;;5048609;28;20264;-67
2021/05/11 02:28:36;;;;;;;3.45;1.20;;;14.10;72.80;;;;;;5047604;28;19927;-67
2021/05/11 02:31:02;;;;;;;;;;;14.10;73.00;;;;;;5048553;28;20033;-67
2021/05/11 02:33:27;;;;;;;6.30;1.77;;;14.00;73.60;;;;;;5047684;28;19931;-67
2021/05/11 02:35:53;;;;;;;;;;;13.90;73.80;;;;;;5047911;28;20032;-67
2021/05/11 02:38:18;;;;;;;3.38;1.75;;;13.90;73.50;;;;;;5046710;28;19912;-67
2021/05/11 02:40:44;;;;;;;;;;;13.90;73.50;;;;;;5048132;28;20079;-66
2021/05/11 02:43:15;;;;;;;6.18;1.98;;;13.90;73.90;;;;;;5047746;28;19919;-67
2021/05/11 02:45:41;;;;;;;5.43;1.90;;;13.80;73.80;;;;;;5047455;28;20051;-67
2021/05/11 02:48:06;;;;;;;;;;;13.70;74.80;;;;;;5047766;28;20021;-67
2021/05/11 02:50:34;;;;;;;6.30;1.95;;;13.70;75.40;;;;;;5047554;28;19908;-67
2021/05/11 02:53:03;;;;;;;6.20;2.08;;;13.50;75.10;;;;;;5047507;28;20029;-68
2021/05/11 02:55:29;;;;;;;9.65;2.72;;;13.50;75.70;;;;;;5047758;28;20025;-67
2021/05/11 02:57:55;;;;;;;;;;;13.50;76.00;;;;;;5048042;28;20409;-68
2021/05/11 03:00:22;;;;;;;5.97;2.20;;;13.40;76.30;;;;;;5047170;28;20373;-67
2021/05/11 03:02:48;;;;;;;8.43;2.00;;;13.30;76.40;;;;;;5046023;28;20489;-67
2021/05/11 03:05:14;;;;;;;;;;;13.40;76.30;;;;;;5045855;28;20024;-67
2021/05/11 03:07:40;;;;;;;6.63;1.83;;;13.50;75.70;;;;;;5047529;28;19909;-67
2021/05/11 03:10:07;;;;;;;;;;;13.60;75.40;;;;;;5046025;28;20070;-67
2021/05/11 03:12:32;;;;;;;4.93;1.33;;;13.70;74.70;;;;;;5047250;28;19970;-67
2021/05/11 03:14:58;;;;;;;;;;;13.80;74.40;;;;;;5047578;28;20032;-67
2021/05/11 03:17:24;;;;;;;3.95;1.75;;;13.80;74.30;;;;;;5047103;28;20007;-65
2021/05/11 03:19:49;;;;;;;;;;;13.90;74.50;;;;;;5046868;28;20111;-67
2021/05/11 03:22:15;;;;;;;10.55;1.83;;;13.80;74.70;;;;;;5045596;28;19908;-67
2021/05/11 03:24:44;;;;;;;;;;;13.70;74.70;;;;;;5047485;28;20120;-67
2021/05/11 03:27:11;;;;;;;5.68;1.85;;;13.70;75.40;;;;;;5047299;28;19909;-68
2021/05/11 03:29:38;;;;;;;3.72;1.88;;;13.70;75.50;;;;;;5047038;28;20029;-67
2021/05/11 03:32:04;;;;;;;3.70;1.50;;;13.60;75.60;;;;;;5046992;28;20418;-67
2021/05/11 03:34:29;;;;;;;6.97;2.08;;;13.60;75.40;;;;;;5046266;28;20021;-67
2021/05/11 03:36:55;;;;;;;;;;;13.60;75.50;;;;;;5046931;28;20094;-68
2021/05/11 03:39:21;;;;;;;5.70;2.38;;;13.60;75.90;;;;;;5046683;28;19909;-67
2021/05/11 03:41:51;;;;;;;;;;;13.50;75.80;;;;;;5046788;28;20410;-68
2021/05/11 03:44:20;;;;;;;4.53;1.90;;;13.50;76.30;;;;;;5046815;28;20361;-67
2021/05/11 03:46:46;;;;;;;8.57;1.80;;;13.50;75.90;;;;;;5046411;28;20485;-67
2021/05/11 03:49:12;;;;;;;;;;;13.60;75.90;;;;;;5046287;28;20079;-67
2021/05/11 03:51:39;;;;;;;6.57;1.70;;;13.60;75.90;;;;;;5046222;28;19940;-69
2021/05/11 03:54:06;;;;;;;5.97;1.42;;;13.60;75.90;;;;;;5045128;28;20025;-68
2021/05/11 03:56:32;;;;;;;4.57;1.73;;;13.80;74.50;;;;;;5045924;28;20554;-68
2021/05/11 03:58:58;;;;;;;5.35;2.05;;;14.00;73.80;;;;;;5046483;28;20099;-68
2021/05/11 04:01:24;;;;;;;4.25;1.85;;;14.30;72.70;;;;;;5046134;28;20033;-67
2021/05/11 04:03:50;;;;;;;4.70;1.60;;;14.50;71.80;;;;;;5046002;28;20159;-67
2021/05/11 04:06:16;;;;;;;;;;;14.70;70.90;;;;;;5046705;28;20079;-68
2021/05/11 04:08:44;;;;;;;3.75;1.33;;;14.90;70.60;;;;;;5046581;28;20164;-68
2021/05/11 04:11:33;;;;;;;4.90;1.30;;;15.10;69.90;;;;;;5045887;28;20025;-68
2021/05/11 04:16:43;;;;;;;11.02;1.50;;;15.60;68.70;;;;;;5046110;28;20032;-68
2021/05/11 04:19:10;;;;;;;5.85;1.00;;;15.90;67.30;;;;;;5045527;28;20033;-67
2021/05/11 04:21:36;;;;;;;5.65;1.27;;;16.20;66.40;;;;;;5045966;28;20052;-68
2021/05/11 04:24:02;;;;;;;5.47;1.52;;;16.40;65.70;;;;;;5045680;28;20086;-67
2021/05/11 04:26:29;;;;;;;3.00;1.00;;;16.60;65.40;;;;;;5046074;28;20190;-67
2021/05/11 04:28:54;;;;;;;3.60;1.20;;;16.70;65.50;;;;;;5046142;28;20021;-67
2021/05/11 04:31:20;;;;;;;4.03;1.70;;;16.80;65.60;;;;;;5045982;28;20481;-68
2021/05/11 04:33:47;;;;;;;6.28;1.38;;;17.00;65.30;;;;;;5045314;28;20032;-67
2021/05/11 04:36:14;;;;;;;13.07;1.10;;;17.20;64.20;;;;;;5044760;28;20915;-68
2021/05/11 04:38:41;;;;;;;10.35;1.58;;;17.50;63.80;;;;;;5045906;28;20215;-68
2021/05/11 04:41:07;;;;;;;7.97;1.05;;;17.70;62.80;;;;;;5045598;28;20110;-68
2021/05/11 04:43:35;;;;;;;14.63;1.33;;;17.90;61.10;;;;;;5045870;28;20035;-68
2021/05/11 04:48:51;;;;;;;7.18;1.70;;;18.20;61.40;;;;;;5044984;28;20025;-67
2021/05/11 04:51:20;;;;;;;4.05;1.45;;;18.20;62.00;;;;;;5045781;28;20037;-67
2021/05/11 04:53:49;;;;;;;6.03;1.60;;;18.20;63.10;;;;;;5045220;28;20493;-69
2021/05/11 04:56:14;;;;;;;9.07;2.15;;;18.30;63.60;;;;;;5045802;28;20497;-66
2021/05/11 04:58:40;;;;;;;6.05;1.23;;;18.40;63.50;;;;;;5043740;28;20033;-68
2021/05/11 05:01:06;;;;;;;8.05;1.73;;;18.60;63.40;;;;;;5046626;28;20036;-68
2021/05/11 05:03:38;;;;;;;12.05;1.40;;;18.70;62.80;;;;;;5049067;28;20052;-68
2021/05/11 05:06:05;;;;;;;8.48;1.30;;;18.90;62.00;;;;;;5049757;28;20024;-68
2021/05/11 05:08:31;;;;;;;7.45;1.15;;;19.10;58.10;;;;;;5049261;28;20021;-68
2021/05/11 05:10:56;;;;;;;11.70;1.38;;;19.40;55.80;;;;;;5049594;28;20184;-68
2021/05/11 05:13:26;;;;;;;5.40;1.30;;;19.60;54.80;;;;;;5049621;28;20021;-68
2021/05/11 05:15:56;;;;;;;5.15;1.10;;;20.00;50.50;;;;;;5049531;28;20044;-68
2021/05/11 05:18:22;;;;;;;4.60;1.23;;;20.20;49.30;;;;;;5047648;28;20493;-67
2021/05/11 05:20:49;;;;;;;3.78;1.25;;;20.30;47.30;;;;;;5049473;28;20626;-68
2021/05/11 05:23:16;;;;;;;5.32;1.08;;;20.40;47.30;;;;;;5048967;28;20095;-67
2021/05/11 05:25:47;;;;;;;6.13;0.93;;;20.80;47.50;;;;;;5049486;28;20480;-68
2021/05/11 05:28:13;;;;;;;7.97;0.80;;;21.10;46.30;;;;;;5049264;28;20232;-68
2021/05/11 05:30:39;;;;;;;4.60;0.98;;;21.30;44.00;;;;;;5048860;28;20029;-68
2021/05/11 05:33:05;;;;;;;4.05;0.90;;;21.60;43.60;;;;;;5048244;28;20409;-68
2021/05/11 05:35:31;;;;;;;4.30;1.30;;;21.90;42.70;;;;;;5049057;28;20672;-68
2021/05/11 05:37:57;;;;;;;5.93;1.08;;;22.30;40.80;;;;;;5049064;28;20041;-68
2021/05/11 05:40:25;;;;;;;3.60;1.20;;;23.10;38.30;;;;;;5048659;28;20025;-69
2021/05/11 05:42:50;;;;;;;6.43;1.35;;;23.40;38.10;;;;;;5048610;28;20630;-68
2021/05/11 05:45:16;;;;;;;3.22;1.17;;;23.50;38.10;;;;;;5049100;28;20051;-68
2021/05/11 05:47:51;;;;;;;5.13;1.00;;;23.40;37.60;;;;;;5048454;28;20091;-68
2021/05/11 05:50:29;;;;;;;3.22;1.00;;;23.50;37.20;;;;;;5048794;28;20025;-68
2021/05/11 05:53:03;;;;;;;3.97;0.82;;;23.90;36.10;;;;;;5048617;28;20031;-68
2021/05/11 05:55:29;;;;;;;4.03;0.98;;;24.50;35.70;;;;;;5047031;28;20033;-67
2021/05/11 05:57:56;;;;;;;7.05;1.50;;;25.40;33.80;;;;;;5048288;28;20029;-68
2021/05/11 06:00:23;;;;;;;3.08;0.90;;;26.40;32.60;;;;;;5048394;28;20106;-68
2021/05/11 06:02:51;;;;;;;6.22;1.52;;;27.30;31.00;;;;;;5048015;28;20688;-67
2021/05/11 06:05:17;;;;;;;4.88;1.00;;;28.10;28.60;;;;;;5048539;28;20167;-67
2021/05/11 06:07:43;;;;;;;5.80;1.52;;;28.40;28.20;;;;;;5048271;28;20502;-67
2021/05/11 06:10:11;;;;;;;6.40;1.40;;;28.90;27.90;;;;;;5048131;28;20507;-68
2021/05/11 06:13:02;;;;;;;5.10;1.63;;;29.50;27.20;;;;;;5048084;28;20021;-68
2021/05/11 06:18:12;;;;;;;3.50;0.98;;;31.00;25.50;;;;;;5048214;28;20571;-68
2021/05/11 06:20:39;;;;;;;6.38;1.10;;;31.20;24.30;;;;;;5048022;28;20489;-68
2021/05/11 06:23:04;;;;;;;7.22;1.17;;;30.80;24.90;;;;;;5047892;28;20067;-67
2021/05/11 06:25:30;;;;;;;5.60;1.30;;;31.00;25.10;;;;;;5048217;28;20052;-67
2021/05/11 06:27:56;;;;;;;4.40;1.25;;;31.30;24.80;;;;;;5047651;28;20032;-68
2021/05/11 06:30:23;;;;;;;8.40;1.15;;;31.70;24.10;;;;;;5048171;28;20037;-69
2021/05/11 06:32:48;;;;;;;5.82;1.20;;;32.10;23.80;;;;;;5047355;28;20036;-69
2021/05/11 06:35:14;;;;;;;8.52;1.52;;;31.90;24.20;;;;;;5048090;28;20461;-68
2021/05/11 06:37:40;;;;;;;5.65;1.42;;;32.00;23.50;;;;;;5048118;28;20044;-68
2021/05/11 06:40:06;;;;;;;6.45;1.15;;;32.10;23.80;;;;;;5047513;28;20036;-68
2021/05/11 06:42:32;;;;;;;8.32;1.40;;;32.30;23.10;;;;;;5047667;28;20052;-67
2021/05/11 06:55:00;;;;;;;5.68;1.05;;;31.70;23.50;;;;;;5048051;28;20036;-67
2021/05/11 06:57:27;;;;;;;5.85;1.48;;;31.50;23.60;;;;;;5047422;28;20033;-67
2021/05/11 06:59:52;;;;;;;4.95;1.13;;;31.60;23.50;;;;;;5047454;28;20437;-67
2021/05/11 07:02:19;;;;;;;4.72;1.60;;;31.10;23.70;;;;;;5046671;28;20091;-66
2021/05/11 07:04:47;;;;;;;8.20;1.40;;;31.10;24.10;;;;;;5047294;28;20033;-67
2021/05/11 07:07:14;;;;;;;6.63;1.45;;;31.50;24.30;;;;;;5045734;28;20543;-67
2021/05/11 07:15:00;;;;;;;6.43;1.33;;;32.30;24.60;;;;;;5047254;28;20094;-67
2021/05/11 07:17:27;;;;;;;9.30;1.13;;;32.60;24.10;;;;;;5046885;28;20033;-66
2021/05/11 07:19:53;;;;;;;8.60;1.10;;;32.80;23.90;;;;;;5045564;28;20047;-67
2021/05/11 07:22:19;;;;;;;6.03;1.17;;;32.60;24.50;;;;;;5047041;28;20029;-67
2021/05/11 07:24:47;;;;;;;9.73;1.48;;;32.50;24.60;;;;;;5044925;28;20365;-68
2021/05/11 07:27:49;;;;;;;4.40;1.33;;;32.60;24.30;;;;;;5046906;28;20489;-67
2021/05/11 07:30:15;;;;;;;1.95;1.02;;;32.40;24.10;;;;;;5046273;28;20048;-68
2021/05/11 07:32:42;;;;;;;5.03;1.08;;;32.60;24.00;;;;;;5046502;28;20052;-68
2021/05/11 07:35:08;;;;;;;1.92;0.93;;;32.70;24.70;;;;;;5046386;28;20025;-68
2021/05/11 07:37:34;;;;;;;3.65;1.17;;;33.10;24.70;;;;;;5045220;28;20021;-67
2021/05/11 07:40:00;;;;;;;3.08;1.15;;;33.60;24.50;;;;;;5046919;28;20560;-66
2021/05/11 08:15:36;;;;;;;3.63;1.15;;;33.40;25.00;;;;;;5082496;28;20067;-67
2021/05/11 08:28:26;;;;;;;8.63;1.58;;;32.50;24.70;;;;;;5082381;28;20480;-68
2021/05/11 08:30:52;;;;;;;4.25;1.00;;;32.50;24.90;;;;;;5081588;28;20024;-67
2021/05/11 08:33:18;;;;;;;5.80;1.50;;;32.30;25.30;;;;;;5082330;28;20400;-68
2021/05/11 08:35:43;;;;;;;2.72;1.65;;;32.30;25.00;;;;;;5081922;28;20025;-67
2021/05/11 08:38:09;;;;;;;7.93;1.80;;;32.10;24.80;;;;;;5081689;28;20031;-66
2021/05/11 08:40:35;;;;;;;4.47;1.45;;;32.20;25.10;;;;;;5081746;28;20060;-68
2021/05/11 08:43:06;;;;;;;6.70;1.33;;;32.50;24.70;;;;;;5081779;28;20024;-66
2021/05/11 08:45:32;;;;;;;1.95;0.90;;;32.80;23.90;;;;;;5080734;28;20140;-67
2021/05/11 08:47:58;;;;;;;4.97;1.38;;;33.00;24.50;;;;;;5081357;28;20055;-66
2021/05/11 08:50:32;;;;;;;2.22;1.00;;;33.40;24.00;;;;;;5080799;28;20040;-66
2021/05/11 09:06:44;;;;;;;9.10;2.03;;;32.60;25.00;;;;;;5069396;28;20098;-66
2021/05/11 09:09:57;;;;;;;4.78;1.27;;;32.90;25.10;;;;;;5068831;28;20066;-66
2021/05/11 09:16:27;;;;;;;5.75;1.10;;;32.60;25.30;;;;;;5055387;28;20040;-67
2021/05/11 09:26:12;;;;;;;14.90;1.58;;;32.40;25.60;;;;;;5066395;28;20044;-67
2021/05/11 09:28:42;;;;;;;5.28;1.25;;;32.30;25.50;;;;;;5066052;28;20521;-66
2021/05/11 09:34:33;;;;;;;3.25;1.30;;;33.00;25.60;;;;;;5067008;28;20408;-69
2021/05/11 09:50:51;;;;;;;3.75;1.33;;;32.30;25.60;;;;;;5046898;28;20103;-68
2021/05/11 09:57:08;;;;;;;3.35;1.25;;;31.70;25.30;;;;;;5066927;28;20523;-67
2021/05/11 10:49:32;;;;;;;11.30;1.67;;;27.70;30.30;;;;;;5065755;28;20036;-66
2021/05/11 10:52:18;;;;;;;5.38;1.35;;;27.50;31.00;;;;;;5065094;28;20036;-66
2021/05/11 10:54:53;;;;;;;5.50;1.25;;;27.40;31.80;;;;;;5065696;28;20098;-66
2021/05/11 10:57:30;;;;;;;5.30;1.40;;;27.40;31.40;;;;;;5065689;28;20127;-66
2021/05/11 11:00:22;;;;;;;11.23;1.75;;;27.30;31.80;;;;;;5064777;28;20028;-66
2021/05/11 11:02:46;;;;;;;4.82;1.48;;;27.30;30.80;;;;;;5065044;28;20037;-67
2021/05/11 11:05:12;;;;;;;3.38;1.30;;;27.50;32.70;;;;;;5065113;28;20066;-67
2021/05/11 11:07:40;;;;;;;8.23;1.20;;;27.70;32.20;;;;;;5065523;28;20028;-66
2021/05/11 11:10:08;;;;;;;4.90;1.20;;;27.80;30.10;;;;;;5064201;28;20105;-66
2021/05/11 11:12:39;;;;;;;6.50;1.27;;;27.90;30.40;;;;;;5064105;28;20064;-66
2021/05/11 11:15:19;;;;;;;6.03;1.10;;;27.80;30.90;;;;;;5064637;28;20536;-67
2021/05/11 11:17:49;;;;;;;4.20;1.40;;;27.80;30.20;;;;;;5066009;28;20111;-66
2021/05/11 11:20:16;;;;;;;2.00;0.90;;;27.80;30.30;;;;;;5064939;28;20408;-67
2021/05/11 11:25:39;;;;;;;8.88;1.08;;;28.00;30.60;;;;;;5066855;28;20093;-67
2021/05/11 11:28:05;;;;;;;10.10;2.05;;;28.10;30.20;;;;;;5065266;28;20435;-67
2021/05/11 11:30:31;;;;;;;4.47;1.75;;;28.30;30.80;;;;;;5064812;28;20035;-66
2021/05/11 11:33:03;;;;;;;6.85;1.15;;;28.20;29.80;;;;;;5065199;28;20090;-66
2021/05/11 11:35:32;;;;;;;8.07;1.58;;;28.10;30.00;;;;;;5064728;28;20044;-67
2021/05/11 11:37:58;;;;;;;2.70;0.98;;;28.20;30.30;;;;;;5065849;28;20024;-67
2021/05/11 11:40:24;;;;;;;3.83;1.00;;;28.30;30.00;;;;;;5066023;28;20557;-68
2021/05/11 11:42:50;;;;;;;4.13;1.63;;;28.40;29.60;;;;;;5065522;28;20082;-67
2021/05/11 11:45:27;;;;;;;2.50;1.20;;;28.30;29.60;;;;;;5065717;28;20110;-67
2021/05/11 11:48:05;;;;;;;2.67;1.13;;;28.20;29.40;;;;;;5065864;28;20028;-67
2021/05/11 11:50:37;;;;;;;8.00;1.27;;;28.10;30.10;;;;;;5065943;28;20521;-68
2021/05/11 11:53:17;;;;;;;7.93;1.38;;;28.10;29.80;;;;;;5065775;28;20107;-67
2021/05/11 11:58:22;;;;;;;5.07;1.20;;;28.10;30.40;;;;;;5065641;28;20175;-67
2021/05/11 12:00:48;;;;;;;11.88;1.42;;;28.10;29.80;;;;;;5065934;28;20107;-68
2021/05/11 12:03:14;;;;;;;4.30;1.83;;;28.10;30.00;;;;;;5064339;28;20147;-68
2021/05/11 12:05:54;;;;;;;4.13;1.45;;;28.10;30.00;;;;;;5066148;28;20025;-66
2021/05/11 12:08:26;;;;;;;3.17;1.10;;;28.10;29.60;;;;;;5065846;28;20071;-67
2021/05/11 12:10:53;;;;;;;5.40;1.60;;;28.00;29.40;;;;;;5065587;28;20027;-68
2021/05/11 12:13:24;;;;;;;8.40;1.23;;;28.00;29.60;;;;;;5065598;28;20035;-67
2021/05/11 12:16:08;;;;;;;7.07;1.48;;;28.00;29.50;;;;;;5064011;28;20447;-68
2021/05/11 12:18:35;;;;;;;3.53;1.27;;;27.90;30.20;;;;;;5065686;28;20132;-67
2021/05/11 12:21:04;;;;;;;5.20;1.05;;;27.80;30.50;;;;;;5065418;28;20488;-68
2021/05/11 12:23:30;;;;;;;4.07;1.10;;;27.80;29.50;;;;;;5065511;28;20100;-67
2021/05/11 12:25:56;;;;;;;5.38;1.27;;;27.70;30.20;;;;;;5065879;28;20036;-67
2021/05/11 12:28:37;;;;;;;4.85;1.33;;;27.70;29.80;;;;;;5063929;28;20032;-67
2021/05/11 12:31:05;;;;;;;9.25;1.52;;;27.70;30.20;;;;;;5066075;28;20070;-67
2021/05/11 12:33:36;;;;;;;7.05;1.38;;;27.70;30.10;;;;;;5069382;28;20021;-67
2021/05/11 12:36:22;;;;;;;7.05;1.05;;;27.80;30.80;;;;;;5068155;28;20037;-67
2021/05/11 12:38:49;;;;;;;3.53;1.10;;;27.80;30.60;;;;;;5069361;28;20040;-67
2021/05/11 12:41:32;;;;;;;3.22;1.35;;;27.80;30.00;;;;;;5067680;28;20024;-67
2021/05/11 12:43:59;;;;;;;5.82;1.38;;;27.60;30.80;;;;;;5068296;28;20504;-67
2021/05/11 12:46:32;;;;;;;18.45;1.17;;;27.70;31.10;;;;;;5069142;28;20016;-67
2021/05/11 12:48:58;;;;;;;2.47;0.85;;;27.80;30.60;;;;;;5067650;28;20028;-73
2021/05/11 12:51:42;;;;;;;4.90;1.33;;;27.50;30.00;;;;;;5067999;28;20035;-67
2021/05/11 12:54:42;;;;;;;7.38;1.15;;;27.60;30.40;;;;;;5069038;28;20717;-67
2021/05/11 12:59:53;;;;;;;6.53;1.40;;;27.70;30.50;;;;;;5068769;28;20523;-67
2021/05/11 13:16:27;;;;;;;2.05;0.80;;;27.80;30.00;;;;;;5068550;28;20301;-67
2021/05/11 13:27:02;;;;;;;4.15;1.23;;;28.00;30.00;;;;;;5056713;28;20047;-67
2021/05/11 13:32:03;;;;;;;11.07;1.88;;;27.90;30.00;;;;;;5068039;28;20039;-67
2021/05/11 13:34:30;;;;;;;11.43;1.30;;;27.90;30.50;;;;;;5068187;28;20409;-67
2021/05/11 13:36:56;;;;;;;7.47;1.15;;;27.80;30.90;;;;;;5068061;28;20381;-67
2021/05/11 13:39:21;;;;;;;2.53;0.65;;;27.80;31.00;;;;;;5068336;28;20081;-67
2021/05/11 13:41:47;;;;;;;2.60;1.10;;;27.90;29.80;;;;;;5066447;28;20028;-67
2021/05/11 13:44:13;;;;;;;3.80;1.05;;;27.90;29.10;;;;;;5068037;28;20089;-66
2021/05/11 13:46:38;;;;;;;3.45;0.88;;;27.90;29.20;;;;;;5068001;28;20042;-67
2021/05/11 13:49:04;;;;;;;4.93;0.88;;;28.00;29.20;;;;;;5068142;28;20155;-66
2021/05/11 13:51:30;;;;;;;7.60;1.45;;;27.90;29.50;;;;;;5067826;28;20064;-66
2021/05/11 13:54:05;;;;;;;8.40;1.52;;;27.90;29.90;;;;;;5067979;28;20078;-67
2021/05/11 14:04:29;;;;;;;4.65;1.00;;;27.90;30.80;;;;;;5067657;28;20094;-66
2021/05/11 14:06:55;;;;;;;6.32;1.00;;;28.00;30.40;;;;;;5067762;28;20143;-67
2021/05/11 14:09:20;;;;;;;5.93;1.23;;;28.00;30.00;;;;;;5067401;28;20120;-67
2021/05/11 14:11:46;;;;;;;3.85;1.05;;;27.90;30.20;;;;;;5066782;28;20016;-67
2021/05/11 14:14:13;;;;;;;3.80;1.10;;;27.90;30.60;;;;;;5067581;28;20480;-66
2021/05/11 14:16:41;;;;;;;2.28;1.00;;;27.80;29.10;;;;;;5067129;28;20110;-66
2021/05/11 14:19:07;;;;;;;2.47;1.17;;;27.80;30.10;;;;;;5067777;28;20496;-67
2021/05/11 14:21:33;;;;;;;2.92;1.10;;;27.90;30.60;;;;;;5067930;28;20548;-67
2021/05/11 14:23:59;;;;;;;5.95;1.13;;;28.00;30.40;;;;;;5067420;28;20044;-67
2021/05/11 14:26:25;;;;;;;4.57;0.75;;;27.90;30.00;;;;;;5066491;28;20123;-67
2021/05/11 14:28:52;;;;;;;2.70;1.10;;;27.80;30.10;;;;;;5067299;28;20024;-67
2021/05/11 14:31:17;;;;;;;7.65;2.10;;;27.70;29.50;;;;;;5067200;28;20028;-67
2021/05/11 14:33:43;;;;;;;4.25;1.30;;;27.70;30.70;;;;;;5066985;28;20029;-66
2021/05/11 14:36:09;;;;;;;2.10;1.05;;;27.80;30.00;;;;;;5066734;28;20041;-67
2021/05/11 14:38:36;;;;;;;3.53;1.00;;;27.80;29.90;;;;;;5066906;28;20512;-67
2021/05/11 14:41:03;;;;;;;3.72;0.93;;;27.80;30.20;;;;;;5066999;28;20028;-67
2021/05/11 14:43:30;;;;;;;13.00;1.13;;;27.80;30.90;;;;;;5066918;28;20397;-67
2021/05/11 14:46:01;;;;;;;3.95;1.33;;;27.80;32.10;;;;;;5066755;28;20540;-66
2021/05/11 14:48:27;;;;;;;5.05;0.93;;;27.70;31.80;;;;;;5066760;28;20024;-66
2021/05/11 14:50:53;;;;;;;2.42;0.70;;;27.60;31.90;;;;;;5066687;28;20031;-67
2021/05/11 14:53:18;;;;;;;2.45;1.20;;;27.60;32.00;;;;;;5066600;28;20669;-67
2021/05/11 14:55:44;;;;;;;5.70;0.95;;;27.60;31.50;;;;;;5066238;28;20048;-67
2021/05/11 14:58:10;;;;;;;3.92;1.20;;;27.60;30.90;;;;;;5066351;28;20554;-67
2021/05/11 15:00:35;;;;;;;2.25;1.20;;;27.50;31.50;;;;;;5066600;28;20838;-66
2021/05/11 15:03:01;;;;;;;5.07;1.17;;;27.40;31.50;;;;;;5066895;28;20386;-67
2021/05/11 15:05:27;;;;;;;10.65;1.30;;;27.50;31.50;;;;;;5066845;28;20078;-67
2021/05/11 15:07:54;;;;;;;3.05;1.13;;;27.60;32.20;;;;;;5066747;28;20412;-67
2021/05/11 15:10:19;;;;;;;7.57;1.58;;;27.50;31.90;;;;;;5066126;28;20025;-67
2021/05/11 15:12:45;;;;;;;4.13;1.25;;;27.60;31.10;;;;;;5064746;28;20495;-67
2021/05/11 15:15:15;;;;;;;4.30;0.95;;;27.60;31.10;;;;;;5066116;28;20024;-68
2021/05/11 15:20:09;;;;;;;4.63;1.20;;;27.50;30.90;;;;;;5066297;28;20635;-66
2021/05/11 15:22:35;;;;;;;4.93;1.23;;;27.50;31.90;;;;;;5066238;28;20552;-68
2021/05/11 15:25:01;;;;;;;15.73;2.10;;;27.50;31.80;;;;;;5066057;28;20124;-67
2021/05/11 15:27:28;;;;;;;2.30;1.05;;;27.50;31.40;;;;;;5065959;28;20408;-67
2021/05/11 15:29:54;;;;;;;1.90;1.02;;;27.40;31.30;;;;;;5066007;28;20159;-67
2021/05/11 15:32:44;;;;;;;2.78;1.33;;;27.50;31.30;;;;;;5066253;28;20464;-67
2021/05/11 15:35:14;;;;;;;2.80;1.10;;;27.40;32.10;;;;;;5066091;28;20036;-67
2021/05/11 15:37:41;;;;;;;3.88;1.45;;;27.40;32.00;;;;;;5066455;28;20051;-66
2021/05/11 15:40:15;;;;;;;5.28;0.88;;;27.40;31.00;;;;;;5065896;28;20083;-66
2021/05/11 15:42:41;;;;;;;8.05;3.72;;;27.30;30.00;;;;;;5065744;28;20024;-67
2021/05/11 15:45:09;;;;;;;18.52;7.65;;;27.30;30.80;;;;;;5066156;28;20063;-67
2021/05/11 15:47:37;;;;;;;2.85;1.10;;;27.30;31.00;;;;;;5065974;28;20568;-66
2021/05/11 15:50:06;;;;;;;8.90;1.30;;;27.30;31.50;;;;;;5066028;28;20029;-67
2021/05/11 15:52:32;;;;;;;3.22;0.80;;;27.20;31.30;;;;;;5066170;28;20044;-67
2021/05/11 15:54:58;;;;;;;4.70;1.05;;;27.20;31.50;;;;;;5066154;28;20037;-67
2021/05/11 15:57:24;;;;;;;6.50;1.00;;;27.20;32.00;;;;;;5066094;28;20186;-66
2021/05/11 15:59:49;;;;;;;5.05;0.98;;;27.10;31.80;;;;;;5066238;28;20016;-67
2021/05/11 16:02:15;;;;;;;3.78;0.93;;;27.10;31.70;;;;;;5066901;28;20067;-67
2021/05/11 16:04:40;;;;;;;3.20;1.20;;;27.00;31.60;;;;;;5065908;28;20481;-67
2021/05/11 16:07:06;;;;;;;3.75;1.60;;;27.00;31.80;;;;;;5067861;28;20028;-66
2021/05/11 16:09:32;;;;;;;1.70;0.98;;;27.00;31.90;;;;;;5069927;28;20115;-67
2021/05/11 16:11:58;;;;;;;4.25;0.85;;;26.90;31.90;;;;;;5069482;28;20550;-69
2021/05/11 16:14:23;;;;;;;5.68;1.02;;;26.90;32.20;;;;;;5069634;28;20452;-68
2021/05/11 16:16:49;;;;;;;4.53;1.10;;;26.80;32.10;;;;;;5069836;28;20037;-68
2021/05/11 16:19:14;;;;;;;3.30;0.98;;;26.80;32.70;;;;;;5068391;28;20021;-68
2021/05/11 16:21:40;;;;;;;2.90;0.80;;;26.70;32.80;;;;;;5068276;28;20025;-67
2021/05/11 16:24:06;;;;;;;6.00;1.05;;;26.70;32.30;;;;;;5069686;28;20540;-67
2021/05/11 16:26:32;;;;;;;12.32;1.10;;;26.60;32.20;;;;;;5068837;28;20401;-68
2021/05/11 16:28:58;;;;;;;6.93;0.90;;;26.60;32.20;;;;;;5069414;28;20020;-68
2021/05/11 16:31:24;;;;;;;5.00;0.80;;;26.50;32.40;;;;;;5068001;28;20029;-68
2021/05/11 16:33:50;;;;;;;7.53;1.23;;;26.50;32.40;;;;;;5069599;28;20016;-68
2021/05/11 16:36:16;;;;;;;3.40;0.80;;;26.50;33.20;;;;;;5069222;28;20029;-67
2021/05/11 16:38:42;;;;;;;2.85;1.02;;;26.40;33.10;;;;;;5069328;28;20021;-68
2021/05/11 16:41:08;;;;;;;5.10;0.95;;;26.40;32.70;;;;;;5068620;28;20043;-67
2021/05/11 16:43:34;;;;;;;2.67;0.90;;;26.40;33.30;;;;;;5068794;28;20037;-67
2021/05/11 16:46:03;;;;;;;1.48;0.70;;;26.30;33.20;;;;;;5067956;28;20049;-66
2021/05/11 16:48:29;;;;;;;4.63;1.30;;;26.30;33.60;;;;;;5068099;28;20023;-68
2021/05/11 16:50:55;;;;;;;2.33;1.02;;;26.20;33.20;;;;;;5067700;28;20031;-67
2021/05/11 16:53:21;;;;;;;1.92;0.90;;;26.20;32.90;;;;;;5067952;28;20028;-69
2021/05/11 16:55:47;;;;;;;4.22;0.93;;;26.20;33.00;;;;;;5067370;28;20039;-67
2021/05/11 16:58:13;;;;;;;4.53;0.98;;;26.10;32.60;;;;;;5066604;28;20021;-68
2021/05/11 17:00:39;;;;;;;5.72;0.95;;;26.10;33.00;;;;;;5066587;28;20033;-69
2021/05/11 17:03:06;;;;;;;5.18;1.10;;;26.00;33.40;;;;;;5068976;28;20060;-69
2021/05/11 17:05:32;;;;;;;3.00;1.05;;;25.90;33.80;;;;;;5067805;28;20493;-68
2021/05/11 17:07:58;;;;;;;4.28;1.13;;;25.90;34.10;;;;;;5068830;28;20027;-69
2021/05/11 17:10:27;;;;;;;3.40;0.90;;;25.80;34.10;;;;;;5068324;28;20036;-68
2021/05/11 17:12:55;;;;;;;3.00;1.00;;;25.80;34.30;;;;;;5067479;28;20028;-69
2021/05/11 17:15:21;;;;;;;4.90;1.27;;;25.70;34.50;;;;;;5068246;28;20056;-69
2021/05/11 17:17:47;;;;;;;6.60;1.17;;;25.70;34.90;;;;;;5067091;28;20028;-68